This is the latest recevied weather packets stored in our database for station/object HP1COO-13. If no packets are shown the sender has not sent any weather packets the latest 10 day(s).
| Time | Temp. | Humidity | Pressure | Rain* | Wind** | Luminosity | Snow |
|---|---|---|---|---|---|---|---|
| 1787851284 | 31.67° C | 80% | 1005.5 hPa | 1.27 mm | - | - | - |
| 1787850018 | 33.89° C | 69% | 1005.8 hPa | 0 mm | - | - | - |
| 1787849385 | 33.89° C | 69% | 1005.7 hPa | 0 mm | - | - | - |
| 1787848752 | 33.33° C | 70% | 1005.8 hPa | 0 mm | - | - | - |
| 1787848125 | 33.33° C | 71% | 1005.9 hPa | 0 mm | - | - | - |
| 1787847486 | 32.78° C | 72% | 1006.2 hPa | 0 mm | - | - | - |
| 1787846853 | 33.33° C | 72% | 1006.2 hPa | 0 mm | - | - | - |
| 1787846220 | 33.33° C | 67% | 1006.2 hPa | 0 mm | - | - | - |
| 1787845587 | 32.78° C | 70% | 1006.4 hPa | 0 mm | - | - | - |
| 1787844954 | 32.78° C | 70% | 1006.3 hPa | 0 mm | - | - | - |
| 1787844321 | 32.22° C | 71% | 1006.5 hPa | 0 mm | - | - | - |
| 1787843688 | 32.78° C | 71% | 1006.3 hPa | 0 mm | - | - | - |
| 1787843055 | 32.78° C | 71% | 1006.5 hPa | 0 mm | - | - | - |
| 1787842422 | 33.33° C | 69% | 1006.5 hPa | 0 mm | - | - | - |
| 1787841789 | 32.78° C | 69% | 1006.5 hPa | 0 mm | - | - | - |
| 1787841156 | 32.22° C | 72% | 1006.3 hPa | 0 mm | - | - | - |
| 1787840523 | 32.78° C | 71% | 1006.2 hPa | 0 mm | - | - | - |
| 1787839890 | 32.22° C | 72% | 1006.2 hPa | 0 mm | - | - | - |
| 1787839257 | 32.78° C | 72% | 1006.2 hPa | 0 mm | - | - | - |
| 1787838624 | 32.22° C | 73% | 1006.3 hPa | 0 mm | - | - | - |
| 1787837991 | 31.11° C | 77% | 1006.3 hPa | 0 mm | - | - | - |
| 1787837358 | 31.11° C | 76% | 1006.3 hPa | 0 mm | - | - | - |
| 1787836725 | 31.67° C | 77% | 1006.1 hPa | 0 mm | - | - | - |
| 1787836092 | 30° C | 82% | 1005.9 hPa | 0 mm | - | - | - |
| 1787835459 | 30° C | 83% | 1005.8 hPa | 0 mm | - | - | - |
* Rain latest hour (hover to see other rain measurements)
** Current wind speed in m/s (hover to see current wind gust speed)